International Virtual Aviation Organisation

Russian Federation and Kazakhstan MCD

 

Карточка аэропорта UWWW

Внимание!
Информация на этой странице в стадии наполнения.
Если вы не увидели какой-то информации, или заметили неточность - пожалуйста сообщите нам!
Спасибо!
Команда RU-STAFF
Название аэропортаКурумоч
Название аэропорта (англ.)Kurumoch
Превышение476 ft. (145.1 m.)
Координаты53°30.102', 50°9.3000000000001'
Высота перехода900m
Эшелон переходаQFE>=749mm:FL050; QFE<749=>722:FL060; QFE<722:FL070
Коды ответчика4140-4177
Зона ОрВДСамара РПИ (UWWW)
Данные METARUWWW 270330Z 00000MPS 9999 SCT033 M10/M11 Q1023 R33/420255 NOSIG RMK QFE756/1009
Проноз погоды (TAF)UWWW 270153Z 2703/2803 VRB01MPS 2000 -SN BR OVC007 TXM05/2710Z TNM08/2803Z TEMPO 2703/2709 0300 FZFG VV002 FM270900 16003G08MPS 9999 BKN016 TEMPO 2709/2803 2000 -SN BR BKN007
NOTAMshow/hide NOTAM
AWOS   TABLE

Информация о ВПП

ВПП Длина ВПП (м.) Покрытие Курс ВПП Частота ILS
052553Асфальтобетон49110.5
232553Асфальтобетон229109.7
153003Железобетон148111.9
333003Железобетон328111.1

Диспетчерские позиции

Позывной Наименование органа УВД Частота
UWWWFM1Машина сопровождения119.000
UWWW_APPСамара-Подход124.600
UWWW_GNDСамара-Руление119.000
UWWW_R_APPСамара-Круг128.000
UWWW_TWRСамара-Старт118.200



Спутниковое изображение